Flight Track Log - Related Links

Times and Time Zones

All times are in EDT time to prevent confusion due to time zone crossing. See the ASQ5745 flight status page for this flight to view local times or setup timezone preferences in your user account.

Time Position Orientation Groundspeed Altitude Reporting Facility
EDT Latitude Longitude Course Direction KTS MPH feet Rate Location/Type
Fri 08:26:17 AM 38.9833 -77.4500 North 198 228 1,700  Level Potomac TRACON
Fri 08:27:11 AM 39.0333 -77.4833 333° Northwest 259 298 3,900 2,593 Climbing Potomac TRACON
Fri 08:28:00 AM 39.2193 -77.4500 North  Level FlightAware Approximate
Fri 08:29:00 AM 39.3146 -77.4500 North  Level FlightAware Approximate
Fri 08:29:36 AM 39.2133 -77.4800 North 272 313 10,300  Level Washington Center
Fri 08:30:00 AM 39.4099 -77.4500 North  Level FlightAware Approximate
Fri 08:30:35 AM 39.3008 -77.4744 North 289 333 11,600  Level Washington Center
Fri 08:31:00 AM 39.5052 -77.4500 North  Level FlightAware Approximate
Fri 08:31:35 AM 39.3989 -77.4717 North 321 369 13,300  Level Washington Center
Fri 08:32:36 AM 39.4992 -77.4661 North 346 398 14,900 1,561 Climbing Washington Center
Fri 08:34:28 AM 39.6864 -77.4536 North 392 451 17,800 1,422 Climbing New York Center
Fri 08:35:29 AM 39.7825 -77.4519 North 386 444 19,000 1,160 Climbing New York Center
Fri 08:36:27 AM 39.9086 -77.3964 19° North 381 438 20,100 1,017 Climbing New York Center
Fri 08:37:27 AM 40.0119 -77.3408 22° Northeast 386 444 21,000 942 Climbing New York Center
Fri 08:38:28 AM 40.1194 -77.2806 23° Northeast 400 460 22,000 1,041 Climbing New York Center
Fri 08:39:28 AM 40.2119 -77.2294 23° Northeast 400 460 23,100 992 Climbing New York Center
Fri 08:40:29 AM 40.3239 -77.1661 23° Northeast 400 460 24,000 1,041 Climbing New York Center
Fri 08:41:29 AM 40.4183 -77.1150 22° Northeast 400 460 25,200 966 Climbing New York Center
Fri 08:42:27 AM 40.5256 -77.0592 22° Northeast 400 460 25,900 712 Climbing New York Center
Fri 08:43:27 AM 40.6306 -77.0006 23° Northeast 405 466 26,600 545 Climbing New York Center
Fri 08:44:28 AM 40.7486 -77.0167 354° North 405 466 27,000 197 Climbing New York Center
Fri 08:45:29 AM 40.8606 -77.0681 341° North 405 466 27,000  Level New York Center
Fri 08:46:27 AM 40.9689 -77.1056 345° North 405 466 27,000  Level New York Center
Fri 08:47:27 AM 41.0819 -77.0997 North 410 472 27,000  Level New York Center
Fri 08:48:27 AM 41.1944 -77.0964 North 403 464 27,000  Level New York Center
Fri 08:49:28 AM 41.2878 -77.0278 29° Northeast 380 437 27,000  Level New York Center
Fri 08:50:27 AM 41.3761 -76.9336 39° Northeast 386 444 27,000  Level New York Center
Fri 08:51:28 AM 41.4681 -76.8453 36° Northeast 397 457 27,000  Level New York Center
Fri 08:52:28 AM 41.5650 -76.7431 38° Northeast 404 465 27,000  Level New York Center
Fri 08:53:29 AM 41.6481 -76.6617 36° Northeast 404 465 27,000  Level New York Center
Fri 08:54:27 AM 41.7381 -76.5722 37° Northeast 409 471 27,000  Level New York Center
Fri 08:55:28 AM 41.8367 -76.4694 38° Northeast 409 471 27,000 -98 Level New York Center
Fri 08:56:29 AM 41.9089 -76.3950 37° Northeast 409 471 26,800 -722 Descending New York Center
Fri 08:58:06 AM 42.0636 -76.2381 37° Northeast 419 482 25,100 -1,032 Descending Boston Center
Fri 08:59:06 AM 42.1458 -76.1533 37° Northeast 389 448 24,100 -550 Descending Boston Center
Fri 09:00:06 AM 42.1956 -76.0331 61° Northeast 359 413 24,000 -50 Descending Boston Center
Fri 09:01:06 AM 42.2433 -75.9039 63° Northeast 364 419 24,000  Level Boston Center
Fri 09:02:18 AM 42.2869 -75.7717 66° East 372 428 24,000  Level Boston Center
Fri 09:03:30 AM 42.3436 -75.6061 65° Northeast 377 434 24,000 -364 Level Boston Center
Fri 09:04:30 AM 42.3958 -75.4511 65° Northeast 372 428 23,200 -950 Descending Boston Center
Fri 09:05:30 AM 42.4347 -75.3236 68° East 372 428 22,100 -955 Descending Boston Center
Fri 09:06:42 AM 42.4400 -75.1917 87° East 356 410 21,100 -1,227 Descending Boston Center
Fri 09:07:42 AM 42.4458 -75.0344 87° East 350 403 19,400 -1,800 Descending Boston Center
Fri 09:08:42 AM 42.4489 -74.8994 88° East 350 403 17,500 -1,750 Descending Boston Center
Fri 09:09:42 AM 42.4508 -74.7981 88° East 343 395 15,900 -2,022 Descending Boston Center
Fri 09:10:14 AM 42.4531 -74.6997 88° East 347 399 14,400 -2,080 Descending Boston Center
Fri 09:10:57 AM 42.4547 -74.6097 89° East 343 395 13,300 -1,432 Descending Boston Center
Fri 09:11:42 AM 42.4750 -74.5317 71° East 331 381 12,300 -1,543 Descending Boston Center
Fri 09:12:42 AM 42.5125 -74.4147 66° East 310 357 10,600 -1,600 Descending Boston Center
Fri 09:13:42 AM 42.5286 -74.3164 77° East 299 344 9,100 -1,750 Descending Boston Center
Fri 09:14:42 AM 42.5492 -74.2044 76° East 287 330 7,100 -1,800 Descending Boston Center
Fri 09:15:42 AM 42.5714 -74.1203 70° East 270 311 5,500 -1,600 Descending Boston Center
Fri 09:16:42 AM 42.6039 -74.0394 61° Northeast 243 280 3,900 -1,350 Descending Boston Center
Fri 09:17:42 AM 42.6361 -73.9642 60° Northeast 225 259 2,800 -1,100 Descending Boston Center

Login

Don't have an account? Register now (free) for customized features, flight alerts, and more!